Time;durP1;ratioP1;P1;durP2;ratioP2;P2;SDS_P1;SDS_P2;PMS_P1;PMS_P2;Temp;Humidity;BMP_temperature;BMP_pressure;BME280_temperature;BME280_humidity;BME280_pressure;Samples;Min_cycle;Max_cycle;Signal;HPM_P1;HPM_P2
2021/03/18 00:01:45;;;;;;;40.50;25.80;;;7.20;99.90;;;;;;1797335;78;21138;-70
2021/03/18 00:04:19;;;;;;;42.98;25.62;;;7.20;99.90;;;;;;1799400;78;21623;-72
2021/03/18 00:06:45;;;;;;;38.88;25.72;;;7.20;99.90;;;;;;1798919;78;21654;-72
2021/03/18 00:09:15;;;;;;;41.37;26.45;;;7.20;99.90;;;;;;1798627;78;21102;-70
2021/03/18 00:11:44;;;;;;;42.03;26.80;;;7.20;99.90;;;;;;1798014;78;21117;-70
2021/03/18 00:14:15;;;;;;;44.80;28.62;;;7.20;99.90;;;;;;1799902;78;21178;-70
2021/03/18 00:16:42;;;;;;;39.50;25.15;;;7.20;99.90;;;;;;1800883;78;21141;-71
2021/03/18 00:19:10;;;;;;;44.63;26.77;;;7.10;99.90;;;;;;1801963;78;21043;-71
2021/03/18 00:21:38;;;;;;;42.03;26.65;;;7.20;99.90;;;;;;1799194;78;21566;-72
2021/03/18 00:24:06;;;;;;;44.05;27.95;;;7.10;99.90;;;;;;1799697;78;21145;-71
2021/03/18 00:26:35;;;;;;;44.77;28.60;;;7.10;99.90;;;;;;1798959;78;21082;-72
2021/03/18 00:29:05;;;;;;;43.13;29.18;;;7.10;99.90;;;;;;1801424;78;21596;-71
2021/03/18 00:31:35;;;;;;;47.03;29.42;;;7.10;99.90;;;;;;1802690;78;21129;-71
2021/03/18 00:34:03;;;;;;;48.40;31.37;;;7.10;99.90;;;;;;1801657;78;21160;-72
2021/03/18 00:36:31;;;;;;;45.30;29.48;;;7.10;99.90;;;;;;1800571;78;21277;-71
2021/03/18 00:39:00;;;;;;;55.15;31.68;;;7.10;99.90;;;;;;1799870;78;21089;-70
2021/03/18 00:41:28;;;;;;;55.90;32.65;;;7.20;99.90;;;;;;1799903;78;21204;-71
2021/03/18 00:43:55;;;;;;;52.48;32.30;;;7.10;99.90;;;;;;1800523;78;21164;-71
2021/03/18 00:46:23;;;;;;;56.25;33.10;;;7.10;99.90;;;;;;1800237;78;21173;-73
2021/03/18 00:48:50;;;;;;;50.98;32.25;;;7.20;99.90;;;;;;1795218;78;21117;-73
2021/03/18 00:51:18;;;;;;;52.85;32.80;;;7.20;99.90;;;;;;1799539;78;21242;-72
2021/03/18 00:53:49;;;;;;;49.50;32.58;;;7.20;99.90;;;;;;1797757;78;21279;-72
2021/03/18 00:56:19;;;;;;;48.28;32.53;;;7.20;99.90;;;;;;1799681;78;21571;-71
2021/03/18 00:58:48;;;;;;;61.40;34.78;;;7.20;99.90;;;;;;1798419;78;21694;-72
2021/03/18 01:01:21;;;;;;;60.78;35.65;;;7.10;99.90;;;;;;1798791;78;21149;-71
2021/03/18 01:03:49;;;;;;;59.53;33.83;;;7.10;99.90;;;;;;1798742;78;21239;-72
2021/03/18 01:06:20;;;;;;;52.50;32.90;;;7.10;99.90;;;;;;1797036;78;21145;-72
2021/03/18 01:08:47;;;;;;;54.83;32.67;;;7.10;99.90;;;;;;1799190;78;21519;-71
2021/03/18 01:11:18;;;;;;;56.02;33.00;;;7.00;99.90;;;;;;1799801;78;21161;-71
2021/03/18 01:13:55;;;;;;;61.80;32.80;;;7.00;99.90;;;;;;1797540;78;21179;-71
2021/03/18 01:16:25;;;;;;;53.33;31.68;;;7.10;99.90;;;;;;1799781;78;21102;-71
2021/03/18 01:18:55;;;;;;;49.53;31.02;;;7.00;99.90;;;;;;1797471;78;21203;-71
2021/03/18 01:21:26;;;;;;;54.60;32.33;;;7.00;99.90;;;;;;1799437;78;21149;-71
2021/03/18 01:23:54;;;;;;;55.35;32.23;;;7.00;99.90;;;;;;1799224;78;21173;-71
2021/03/18 01:26:21;;;;;;;48.10;31.65;;;7.00;99.90;;;;;;1799191;78;21535;-70
2021/03/18 01:28:49;;;;;;;55.17;33.90;;;7.00;99.90;;;;;;1799702;78;21106;-71
2021/03/18 01:31:16;;;;;;;53.13;32.40;;;7.00;99.90;;;;;;1799851;78;21707;-70
2021/03/18 01:33:44;;;;;;;49.30;30.12;;;7.00;99.90;;;;;;1800155;78;21218;-71
2021/03/18 01:36:13;;;;;;;50.67;31.37;;;6.90;99.90;;;;;;1837183;74;21183;-66
2021/03/18 01:38:48;;;;;;;49.77;30.40;;;7.00;99.90;;;;;;1830164;77;21085;-67
2021/03/18 01:41:16;;;;;;;50.17;28.92;;;6.90;99.90;;;;;;1825112;77;21179;-67
2021/03/18 01:43:45;;;;;;;44.30;28.55;;;6.90;99.90;;;;;;1862733;75;21136;-66
2021/03/18 01:46:14;;;;;;;44.53;29.48;;;6.90;99.90;;;;;;1850473;76;22182;-67
2021/03/18 01:48:42;;;;;;;44.00;28.25;;;6.90;99.90;;;;;;1854395;76;21097;-67
2021/03/18 01:51:12;;;;;;;46.60;29.18;;;6.90;99.90;;;;;;1854936;76;21159;-68
2021/03/18 01:53:39;;;;;;;45.85;28.67;;;6.80;99.90;;;;;;1856270;76;21124;-66
2021/03/18 01:56:08;;;;;;;48.17;29.00;;;6.80;99.90;;;;;;1889778;74;21214;-65
2021/03/18 01:58:37;;;;;;;49.30;30.12;;;6.70;99.90;;;;;;1852831;76;21108;-67
2021/03/18 02:01:08;;;;;;;54.60;31.60;;;6.70;99.90;;;;;;1875055;75;21129;-68
2021/03/18 02:03:36;;;;;;;56.25;30.62;;;6.80;99.90;;;;;;1874758;75;21163;-67
2021/03/18 02:06:05;;;;;;;49.88;29.77;;;6.80;99.90;;;;;;1875359;75;21635;-68
2021/03/18 02:08:33;;;;;;;53.38;31.17;;;6.80;99.90;;;;;;1860390;76;21018;-68
2021/03/18 02:11:00;;;;;;;51.45;31.93;;;6.90;99.90;;;;;;1862341;75;21480;-67
2021/03/18 02:13:28;;;;;;;52.35;31.77;;;6.90;99.90;;;;;;1875815;75;21109;-67
2021/03/18 02:16:01;;;;;;;49.25;31.95;;;6.80;99.90;;;;;;1875002;75;21148;-67
2021/03/18 02:18:47;;;;;;;55.70;33.25;;;6.80;99.90;;;;;;1875212;75;21094;-67
2021/03/18 02:21:40;;;;;;;54.00;31.95;;;6.80;99.90;;;;;;1876640;75;21103;-65
2021/03/18 02:24:31;;;;;;;60.65;34.60;;;6.90;99.90;;;;;;1875407;75;21191;-67
2021/03/18 02:27:13;;;;;;;57.15;33.83;;;6.80;99.90;;;;;;1921592;73;21210;-65
2021/03/18 02:30:00;;;;;;;60.90;35.40;;;6.90;99.90;;;;;;1918237;73;21070;-66
2021/03/18 02:32:50;;;;;;;65.08;38.15;;;6.80;99.90;;;;;;1921656;73;21360;-67
2021/03/18 02:35:27;;;;;;;72.00;38.63;;;6.80;99.90;;;;;;1918294;73;21224;-65
2021/03/18 02:38:02;;;;;;;70.37;39.65;;;6.70;99.90;;;;;;1923001;73;21095;-66
2021/03/18 02:40:33;;;;;;;69.87;38.95;;;6.70;99.90;;;;;;1920721;73;21533;-67
2021/03/18 02:43:04;;;;;;;71.53;39.50;;;6.70;99.90;;;;;;1919714;73;21029;-67
2021/03/18 02:45:37;;;;;;;68.12;39.83;;;6.70;99.90;;;;;;1923169;73;21156;-67
2021/03/18 02:48:08;;;;;;;65.35;37.65;;;6.80;99.90;;;;;;1910688;73;21082;-66
2021/03/18 02:50:37;;;;;;;71.10;39.92;;;6.80;99.90;;;;;;1871990;76;21105;-66
2021/03/18 02:53:06;;;;;;;65.03;37.05;;;6.80;99.90;;;;;;1872211;75;21187;-65
2021/03/18 02:55:35;;;;;;;64.82;37.65;;;6.90;99.90;;;;;;1920919;73;21184;-67
2021/03/18 02:58:05;;;;;;;62.67;37.40;;;6.90;99.90;;;;;;1923030;73;22269;-66
2021/03/18 03:00:35;;;;;;;65.50;35.80;;;6.80;99.90;;;;;;1921779;73;21044;-66
2021/03/18 03:03:04;;;;;;;63.85;36.63;;;6.80;99.90;;;;;;1922757;73;21104;-67
2021/03/18 03:05:33;;;;;;;57.70;35.38;;;6.80;99.90;;;;;;1923345;73;21569;-67
2021/03/18 03:08:02;;;;;;;64.77;36.80;;;6.80;99.90;;;;;;1922770;73;21149;-66
2021/03/18 03:10:31;;;;;;;58.92;35.17;;;6.80;99.90;;;;;;1922491;73;21211;-68
2021/03/18 03:12:59;;;;;;;51.55;31.70;;;6.80;99.90;;;;;;1921971;73;21680;-67
2021/03/18 03:15:30;;;;;;;47.30;28.83;;;6.80;99.90;;;;;;1922713;73;21141;-67
2021/03/18 03:18:00;;;;;;;50.40;30.65;;;6.70;99.90;;;;;;1923862;73;21058;-68
2021/03/18 03:20:29;;;;;;;47.62;29.48;;;6.70;99.90;;;;;;1922651;73;21121;-67
2021/03/18 03:22:59;;;;;;;56.40;31.55;;;6.70;99.90;;;;;;1876587;75;21168;-68
2021/03/18 03:25:27;;;;;;;55.75;32.88;;;6.80;99.90;;;;;;1877833;75;21101;-67
2021/03/18 03:27:55;;;;;;;55.08;32.78;;;6.70;99.90;;;;;;1876298;75;21222;-67
2021/03/18 03:30:25;;;;;;;52.17;32.10;;;6.70;99.90;;;;;;1922631;73;21125;-66
2021/03/18 03:32:53;;;;;;;55.88;33.38;;;6.60;99.90;;;;;;1921168;73;21101;-66
2021/03/18 03:35:21;;;;;;;59.00;34.27;;;6.60;99.90;;;;;;1848066;76;22290;-65
2021/03/18 03:37:49;;;;;;;59.25;34.65;;;6.60;99.90;;;;;;1886520;74;21116;-67
2021/03/18 03:40:19;;;;;;;59.45;33.53;;;6.60;99.90;;;;;;1888162;74;21733;-66
2021/03/18 03:42:47;;;;;;;59.75;33.53;;;6.60;99.90;;;;;;1871677;76;21136;-66
2021/03/18 03:45:16;;;;;;;62.20;35.13;;;6.60;99.90;;;;;;1852271;76;21611;-67
2021/03/18 03:47:45;;;;;;;64.45;33.33;;;6.60;99.90;;;;;;1872886;75;21141;-65
2021/03/18 03:50:15;;;;;;;58.95;34.85;;;6.60;99.90;;;;;;1888352;74;21480;-69
2021/03/18 03:53:05;;;;;;;57.33;33.15;;;6.60;99.90;;;;;;1888954;74;22167;-67
2021/03/18 03:55:48;;;;;;;61.02;34.85;;;6.50;99.90;;;;;;1889822;74;21144;-68
2021/03/18 03:58:22;;;;;;;;;;;6.50;99.90;;;;;;1858142;76;21101;-68
2021/03/18 04:00:50;;;;;;;62.30;34.03;;;6.40;99.90;;;;;;1889523;74;20428;-68
2021/03/18 04:03:18;;;;;;;59.98;34.30;;;6.50;99.90;;;;;;1889064;74;21106;-68
2021/03/18 04:05:47;;;;;;;65.37;35.48;;;6.50;99.90;;;;;;1884160;74;21216;-68
2021/03/18 04:08:16;;;;;;;68.37;37.20;;;6.50;99.90;;;;;;1845935;76;21957;-69
2021/03/18 04:10:45;;;;;;;68.72;36.50;;;6.50;99.90;;;;;;1890817;74;21513;-68
2021/03/18 04:13:15;;;;;;;65.03;37.20;;;6.50;99.90;;;;;;1876454;75;21097;-67
2021/03/18 04:15:44;;;;;;;64.32;38.15;;;6.50;99.90;;;;;;1874354;75;21074;-67
2021/03/18 04:18:13;;;;;;;64.82;37.80;;;6.50;99.90;;;;;;1877855;75;21026;-68
2021/03/18 04:20:42;;;;;;;60.43;35.38;;;6.50;99.90;;;;;;1877637;75;21678;-69
2021/03/18 04:23:12;;;;;;;62.25;36.35;;;6.40;99.90;;;;;;1876792;75;21335;-67
2021/03/18 04:25:41;;;;;;;61.65;35.52;;;6.40;99.90;;;;;;1878058;75;21113;-68
2021/03/18 04:28:10;;;;;;;60.90;35.63;;;6.40;99.90;;;;;;1874369;75;21129;-66
2021/03/18 04:30:40;;;;;;;54.58;34.20;;;6.40;99.90;;;;;;1917565;73;21065;-67
2021/03/18 04:33:10;;;;;;;58.50;35.58;;;6.40;99.90;;;;;;1853962;76;21662;-68
2021/03/18 04:35:38;;;;;;;59.70;35.92;;;6.40;99.90;;;;;;1850866;76;21156;-69
2021/03/18 04:38:06;;;;;;;64.47;38.95;;;6.30;99.90;;;;;;1875154;76;21254;-68
2021/03/18 04:40:34;;;;;;;61.98;38.85;;;6.30;99.90;;;;;;1876757;75;21101;-68
2021/03/18 04:43:03;;;;;;;64.80;38.78;;;6.30;99.90;;;;;;1874909;75;21200;-68
2021/03/18 04:45:32;;;;;;;66.05;39.70;;;6.20;99.90;;;;;;1874734;75;21264;-67
2021/03/18 04:48:02;;;;;;;64.47;39.38;;;6.20;99.90;;;;;;1873318;75;21638;-67
2021/03/18 04:50:30;;;;;;;67.32;39.27;;;6.20;99.90;;;;;;1867975;76;21073;-68
2021/03/18 04:52:58;;;;;;;57.55;36.25;;;6.20;99.90;;;;;;1872017;74;21162;-66
2021/03/18 04:55:27;;;;;;;61.37;36.10;;;6.10;99.90;;;;;;1889898;74;21169;-67
2021/03/18 04:58:06;;;;;;;65.55;37.83;;;6.10;99.90;;;;;;1853887;76;21077;-67
2021/03/18 05:00:36;;;;;;;62.98;37.63;;;6.10;99.90;;;;;;1876156;75;21144;-67
2021/03/18 05:03:05;;;;;;;61.37;35.88;;;6.00;99.90;;;;;;1874793;75;21121;-66
2021/03/18 05:05:35;;;;;;;68.85;38.73;;;5.90;99.90;;;;;;1873047;75;21121;-65
2021/03/18 05:08:04;;;;;;;66.87;38.78;;;5.90;99.90;;;;;;1874059;75;21629;-67
2021/03/18 05:10:34;;;;;;;61.85;38.40;;;6.00;99.90;;;;;;1875568;75;21109;-66
2021/03/18 05:13:05;;;;;;;64.85;39.08;;;6.00;99.90;;;;;;1875093;75;21606;-67
2021/03/18 05:15:33;;;;;;;67.30;38.67;;;6.10;99.90;;;;;;1876001;75;21130;-67
2021/03/18 05:18:02;;;;;;;71.85;40.00;;;6.00;99.90;;;;;;1874584;75;21117;-67
2021/03/18 05:20:31;;;;;;;62.62;37.17;;;6.00;99.90;;;;;;1872791;75;21153;-64
2021/03/18 05:22:59;;;;;;;65.08;38.85;;;6.10;99.90;;;;;;1874271;75;21525;-67
2021/03/18 05:25:30;;;;;;;62.83;37.70;;;6.00;99.90;;;;;;1874808;75;21555;-67
2021/03/18 05:27:58;;;;;;;61.63;37.60;;;6.00;99.90;;;;;;1875187;75;21059;-68
2021/03/18 05:30:30;;;;;;;63.33;37.17;;;6.00;99.90;;;;;;1873407;75;22173;-66
2021/03/18 05:32:59;;;;;;;57.55;36.68;;;6.00;99.90;;;;;;1872677;75;21608;-65
2021/03/18 05:35:27;;;;;;;57.95;35.65;;;6.00;99.90;;;;;;1921618;73;21180;-67
2021/03/18 05:37:55;;;;;;;58.68;34.23;;;6.00;99.90;;;;;;1916860;73;21543;-67
2021/03/18 05:40:23;;;;;;;58.98;34.45;;;5.90;99.90;;;;;;1922096;73;22262;-66
2021/03/18 05:42:51;;;;;;;56.53;34.40;;;5.90;99.90;;;;;;1922551;73;21155;-66
2021/03/18 05:45:20;;;;;;;58.68;34.40;;;5.90;99.90;;;;;;1922198;73;21590;-67
2021/03/18 05:47:50;;;;;;;57.80;34.23;;;5.90;99.90;;;;;;1922950;73;21125;-67
2021/03/18 05:50:20;;;;;;;60.58;34.98;;;5.90;99.90;;;;;;1920062;73;21096;-66
2021/03/18 05:52:50;;;;;;;61.53;33.45;;;5.90;99.90;;;;;;1924219;73;21031;-66
2021/03/18 05:55:19;;;;;;;56.50;33.60;;;6.00;99.90;;;;;;1923108;73;21085;-67
2021/03/18 05:57:49;;;;;;;58.38;33.70;;;5.90;99.90;;;;;;1924523;73;21019;-66
2021/03/18 06:00:18;;;;;;;61.10;34.58;;;5.90;99.90;;;;;;1925049;73;21030;-66
2021/03/18 06:02:45;;;;;;;62.65;33.88;;;5.90;99.90;;;;;;1886668;74;21021;-67
2021/03/18 06:05:15;;;;;;;61.58;34.98;;;5.90;99.90;;;;;;1886372;74;21021;-67
2021/03/18 06:07:44;;;;;;;64.77;34.78;;;5.90;99.90;;;;;;1861657;74;21037;-69
2021/03/18 06:10:15;;;;;;;64.50;33.88;;;6.00;99.90;;;;;;1886105;74;21033;-67
2021/03/18 06:12:43;;;;;;;61.90;34.90;;;6.00;99.90;;;;;;1852889;76;21023;-72
2021/03/18 06:15:13;;;;;;;61.45;34.43;;;6.00;99.90;;;;;;1892042;74;21128;-68
2021/03/18 06:17:41;;;;;;;66.62;35.03;;;6.00;99.90;;;;;;1890773;74;21135;-68
2021/03/18 06:20:14;;;;;;;66.00;34.15;;;6.00;99.90;;;;;;1893699;74;21113;-68
2021/03/18 06:22:45;;;;;;;68.87;35.92;;;6.00;99.90;;;;;;1888964;74;21079;-68
2021/03/18 06:25:33;;;;;;;64.58;35.52;;;6.00;99.90;;;;;;1890051;74;21451;-68
2021/03/18 06:28:18;;;;;;;61.58;33.60;;;6.00;99.90;;;;;;1887224;74;21208;-67
2021/03/18 06:30:48;;;;;;;66.72;35.17;;;6.00;99.90;;;;;;1855715;76;21164;-66
2021/03/18 06:33:21;;;;;;;66.15;33.90;;;6.00;99.90;;;;;;1883920;74;21136;-67
2021/03/18 06:35:49;;;;;;;67.12;35.30;;;6.00;99.90;;;;;;1888616;74;22603;-66
2021/03/18 06:38:17;;;;;;;67.70;34.50;;;6.00;99.90;;;;;;1853394;76;21623;-66
2021/03/18 06:40:46;;;;;;;64.75;32.95;;;6.10;99.90;;;;;;1889636;74;21160;-68
2021/03/18 06:43:14;;;;;;;64.40;34.38;;;6.10;99.90;;;;;;1890685;74;21096;-67
2021/03/18 06:45:44;;;;;;;66.50;32.05;;;6.20;99.90;;;;;;1885235;74;21155;-68
2021/03/18 06:48:15;;;;;;;59.88;31.57;;;6.20;99.90;;;;;;1855946;76;21630;-68
2021/03/18 06:50:48;;;;;;;61.90;32.17;;;6.20;99.90;;;;;;1882656;74;21120;-67
2021/03/18 06:53:28;;;;;;;67.53;34.23;;;6.30;99.90;;;;;;1845395;76;21124;-66
2021/03/18 06:55:56;;;;;;;67.37;34.10;;;6.30;99.90;;;;;;1861135;75;21169;-68
2021/03/18 06:58:28;;;;;;;66.30;32.67;;;6.30;99.90;;;;;;1865293;75;21110;-68
2021/03/18 07:00:59;;;;;;;;;;;6.30;99.90;;;;;;1863962;75;21104;-66
2021/03/18 07:03:32;;;;;;;57.20;30.68;;;6.30;99.90;;;;;;1913489;73;20489;-67
2021/03/18 07:06:01;;;;;;;64.65;32.80;;;6.30;99.90;;;;;;1876728;74;21275;-68
2021/03/18 07:08:32;;;;;;;64.32;32.17;;;6.30;99.90;;;;;;1853511;76;21153;-66
2021/03/18 07:11:01;;;;;;;68.70;33.98;;;6.20;99.90;;;;;;1887705;74;21183;-67
2021/03/18 07:13:32;;;;;;;66.42;32.83;;;6.30;99.90;;;;;;1853343;76;21246;-66
2021/03/18 07:16:00;;;;;;;63.78;32.55;;;6.40;99.90;;;;;;1883219;74;21096;-67
2021/03/18 07:18:28;;;;;;;65.67;32.48;;;6.50;99.90;;;;;;1852600;76;21571;-68
2021/03/18 07:20:59;;;;;;;64.10;31.60;;;6.40;99.90;;;;;;1855143;76;21590;-68
2021/03/18 07:23:34;;;;;;;54.58;29.50;;;6.40;99.90;;;;;;1888412;74;21141;-67
2021/03/18 07:26:04;;;;;;;49.90;26.90;;;6.40;99.90;;;;;;1888478;74;21214;-65
2021/03/18 07:28:32;;;;;;;47.88;26.25;;;6.40;99.90;;;;;;1863065;75;21133;-66
2021/03/18 07:31:00;;;;;;;49.88;27.75;;;6.40;99.90;;;;;;1853050;76;21128;-64
2021/03/18 07:33:27;;;;;;;44.08;26.70;;;6.40;99.90;;;;;;1856200;76;21057;-66
2021/03/18 07:35:55;;;;;;;45.80;26.33;;;6.50;99.90;;;;;;1889325;74;21268;-67
2021/03/18 07:38:23;;;;;;;46.28;25.85;;;6.50;99.90;;;;;;1874184;75;21102;-67
2021/03/18 07:40:50;;;;;;;43.02;25.27;;;6.60;99.90;;;;;;1871117;75;21105;-65
2021/03/18 07:43:19;;;;;;;42.85;25.95;;;6.60;99.90;;;;;;1872224;75;21118;-66
2021/03/18 07:45:47;;;;;;;39.50;22.00;;;6.60;99.90;;;;;;1872928;75;21690;-65
2021/03/18 07:48:16;;;;;;;33.50;21.33;;;6.70;99.90;;;;;;1871913;75;21129;-66
2021/03/18 07:50:44;;;;;;;31.65;19.95;;;6.70;99.90;;;;;;1886416;74;21148;-65
2021/03/18 07:53:15;;;;;;;33.42;19.98;;;6.70;99.90;;;;;;1876247;75;21680;-66
2021/03/18 07:55:43;;;;;;;34.87;19.23;;;6.80;99.90;;;;;;1889929;74;21169;-67
2021/03/18 07:58:10;;;;;;;34.50;20.95;;;6.90;99.90;;;;;;1890102;74;21011;-67
2021/03/18 08:00:41;;;;;;;36.38;20.88;;;6.90;99.90;;;;;;1887695;74;21168;-67
2021/03/18 08:03:24;;;;;;;32.20;19.15;;;7.10;99.90;;;;;;1889044;74;21137;-67
2021/03/18 08:05:51;;;;;;;33.50;18.77;;;7.20;99.90;;;;;;1879524;75;21137;-66
2021/03/18 08:08:34;;;;;;;29.77;18.77;;;7.20;99.90;;;;;;1924615;73;21042;-67
2021/03/18 08:11:08;;;;;;;;;;;7.30;99.90;;;;;;1895070;74;21092;-67
2021/03/18 08:13:38;;;;;;;29.95;17.90;;;7.30;99.90;;;;;;1875108;75;20185;-67
2021/03/18 08:16:27;;;;;;;29.52;18.23;;;7.30;99.90;;;;;;1923844;73;21106;-65
2021/03/18 08:18:54;;;;;;;29.77;18.57;;;7.40;99.90;;;;;;1886251;74;21108;-66
2021/03/18 08:21:34;;;;;;;30.65;18.30;;;7.40;99.90;;;;;;1892301;74;21053;-66
2021/03/18 08:24:02;;;;;;;32.80;17.65;;;7.40;99.90;;;;;;1874623;75;21034;-68
2021/03/18 08:26:45;;;;;;;27.05;17.30;;;7.50;99.90;;;;;;1853841;76;21723;-68
2021/03/18 08:29:16;;;;;;;31.82;17.37;;;7.50;99.90;;;;;;1860091;76;21148;-66
2021/03/18 08:31:52;;;;;;;28.52;18.55;;;7.60;99.90;;;;;;1868884;75;21095;-66
2021/03/18 08:34:22;;;;;;;29.63;17.85;;;7.60;99.90;;;;;;1874621;75;21186;-65
2021/03/18 08:36:55;;;;;;;33.08;18.10;;;7.60;99.90;;;;;;1869297;75;21205;-65
2021/03/18 08:39:45;;;;;;;35.17;18.75;;;7.50;99.90;;;;;;1871299;75;21118;-66
2021/03/18 08:42:35;;;;;;;32.67;19.12;;;7.50;99.90;;;;;;1873892;75;21113;-67
2021/03/18 08:45:11;;;;;;;35.58;17.92;;;7.50;99.90;;;;;;1888179;74;21112;-65
2021/03/18 08:47:45;;;;;;;34.48;19.62;;;7.50;99.90;;;;;;1887567;74;21113;-66
2021/03/18 08:50:15;;;;;;;34.60;20.02;;;7.50;99.90;;;;;;1845042;76;21105;-66
2021/03/18 08:52:44;;;;;;;33.63;19.25;;;7.50;99.90;;;;;;1867835;75;21145;-67
2021/03/18 08:55:13;;;;;;;34.88;19.25;;;7.50;99.90;;;;;;1862767;75;21219;-66
2021/03/18 08:57:42;;;;;;;31.90;18.12;;;7.60;99.90;;;;;;1873664;75;21189;-65
2021/03/18 09:02:59;;;;;;;30.23;18.42;;;7.70;99.90;;;;;;1951003;72;21200;-64
2021/03/18 09:05:27;;;;;;;31.37;18.90;;;7.60;99.90;;;;;;1943822;72;21176;-64
2021/03/18 09:07:58;;;;;;;28.95;16.30;;;7.70;99.90;;;;;;1855050;76;21075;-64
2021/03/18 09:10:28;;;;;;;32.53;18.30;;;7.80;99.90;;;;;;1888713;74;22154;-65
2021/03/18 09:13:00;;;;;;;32.65;18.15;;;7.90;99.90;;;;;;1886851;74;21211;-65
2021/03/18 09:15:31;;;;;;;30.32;18.65;;;7.90;99.90;;;;;;1888531;74;21133;-63
2021/03/18 09:18:13;;;;;;;31.20;18.27;;;8.00;99.90;;;;;;1845866;76;21117;-66
2021/03/18 09:20:44;;;;;;;28.52;17.75;;;8.00;99.90;;;;;;1917392;73;21556;-66
2021/03/18 09:23:16;;;;;;;33.00;18.32;;;7.90;99.90;;;;;;1922169;73;21606;-65
2021/03/18 09:25:46;;;;;;;30.62;17.57;;;8.00;99.90;;;;;;1922614;73;21193;-66
2021/03/18 09:28:14;;;;;;;33.90;19.23;;;8.00;99.90;;;;;;1923185;73;21088;-64
2021/03/18 09:30:47;;;;;;;34.00;19.62;;;8.10;99.90;;;;;;1919869;73;21576;-66
2021/03/18 09:33:32;;;;;;;33.92;19.35;;;8.10;99.90;;;;;;1920364;73;21121;-68
2021/03/18 09:36:03;;;;;;;34.95;20.08;;;8.10;99.90;;;;;;1918308;73;21113;-68
2021/03/18 09:38:32;;;;;;;35.03;20.62;;;8.10;99.90;;;;;;1916338;73;21061;-68
2021/03/18 09:41:01;;;;;;;31.93;20.10;;;8.20;99.90;;;;;;1921021;73;21066;-68
2021/03/18 09:43:31;;;;;;;30.60;18.12;;;8.30;99.90;;;;;;1919425;73;21037;-68
2021/03/18 09:46:01;;;;;;;29.70;16.85;;;8.40;99.90;;;;;;1888623;74;21206;-68
2021/03/18 09:48:37;;;;;;;29.67;16.42;;;8.50;99.90;;;;;;1888012;74;21086;-68
2021/03/18 09:51:17;;;;;;;28.27;16.37;;;8.50;99.90;;;;;;1858045;76;21077;-68
2021/03/18 09:53:47;;;;;;;27.42;16.25;;;8.60;99.90;;;;;;1862452;76;22205;-66
2021/03/18 09:56:16;;;;;;;26.95;16.10;;;8.60;99.90;;;;;;1860777;76;21108;-68
2021/03/18 09:58:44;;;;;;;30.48;14.75;;;8.70;99.90;;;;;;1850382;76;21701;-68
2021/03/18 10:01:17;;;;;;;25.23;13.28;;;8.80;99.90;;;;;;1842058;76;21049;-69
2021/03/18 10:04:03;;;;;;;27.65;12.88;;;9.00;99.90;;;;;;1920559;73;21117;-68
2021/03/18 10:06:33;;;;;;;20.88;13.65;;;9.30;99.90;;;;;;1858539;76;21125;-68
2021/03/18 10:09:19;;;;;;;23.62;14.58;;;9.40;99.90;;;;;;1845081;76;21104;-66
2021/03/18 10:11:52;;;;;;;26.00;15.80;;;9.60;99.90;;;;;;1847945;76;21635;-68
2021/03/18 10:14:22;;;;;;;25.90;14.25;;;9.80;99.90;;;;;;1849826;76;22186;-66
2021/03/18 10:16:50;;;;;;;23.85;14.35;;;9.80;99.90;;;;;;1844546;76;21128;-67
2021/03/18 10:19:19;;;;;;;26.75;15.53;;;9.90;99.90;;;;;;1890334;74;21071;-66
2021/03/18 10:21:47;;;;;;;27.20;14.38;;;10.00;99.90;;;;;;1888049;74;21169;-67
2021/03/18 10:24:15;;;;;;;19.98;12.93;;;10.20;99.90;;;;;;1884909;74;21327;-69
2021/03/18 10:26:44;;;;;;;21.50;13.28;;;10.20;99.90;;;;;;1887408;74;21263;-66
2021/03/18 10:29:13;;;;;;;20.10;11.33;;;10.30;99.90;;;;;;1853230;76;21190;-68
2021/03/18 10:31:42;;;;;;;22.52;12.55;;;10.40;99.90;;;;;;1854856;76;22632;-67
2021/03/18 10:34:24;;;;;;;19.45;12.03;;;10.60;99.90;;;;;;1854769;76;21617;-68
2021/03/18 10:36:52;;;;;;;24.35;13.18;;;10.60;99.90;;;;;;1854934;76;21227;-67
2021/03/18 10:39:23;;;;;;;22.37;12.10;;;10.60;99.90;;;;;;1857766;76;21694;-65
2021/03/18 10:41:55;;;;;;;19.73;11.88;;;10.60;99.90;;;;;;1855240;76;21117;-67
2021/03/18 10:44:25;;;;;;;18.40;10.45;;;10.60;99.90;;;;;;1885904;75;21114;-67
2021/03/18 10:46:52;;;;;;;19.20;10.20;;;10.50;99.90;;;;;;1881986;74;21154;-66
2021/03/18 10:49:20;;;;;;;17.95;10.45;;;10.50;99.90;;;;;;1888046;75;21611;-64
2021/03/18 10:51:50;;;;;;;19.67;11.33;;;10.50;99.90;;;;;;1849252;76;21206;-65
2021/03/18 10:54:22;;;;;;;18.40;10.38;;;10.30;99.90;;;;;;1887882;74;21614;-66
2021/03/18 10:56:51;;;;;;;16.10;10.55;;;10.30;99.90;;;;;;1920020;73;21074;-67
2021/03/18 10:59:21;;;;;;;17.70;9.98;;;10.20;99.90;;;;;;1919196;73;21134;-66
2021/03/18 11:01:50;;;;;;;15.08;9.55;;;10.30;99.90;;;;;;1920300;73;21649;-66
2021/03/18 11:04:18;;;;;;;16.12;9.78;;;10.30;99.90;;;;;;1920185;73;22251;-68
2021/03/18 11:06:50;;;;;;;16.93;10.45;;;10.40;99.90;;;;;;1853654;76;21161;-68
2021/03/18 11:09:19;;;;;;;16.67;9.28;;;10.40;99.90;;;;;;1853368;76;21097;-67
2021/03/18 11:12:00;;;;;;;14.83;9.38;;;10.50;99.90;;;;;;1858028;76;21050;-67
2021/03/18 11:14:27;;;;;;;16.75;9.75;;;10.60;99.90;;;;;;1853209;76;21585;-68
2021/03/18 11:17:08;;;;;;;15.98;8.80;;;10.70;99.90;;;;;;1854828;76;22281;-66
2021/03/18 11:19:36;;;;;;;13.55;7.65;;;10.80;99.90;;;;;;1844447;76;21139;-65
2021/03/18 11:22:07;;;;;;;12.78;7.35;;;10.80;99.80;;;;;;1851151;76;21181;-68
2021/03/18 11:24:34;;;;;;;11.78;7.50;;;10.90;99.90;;;;;;1860430;76;21097;-68
2021/03/18 11:27:04;;;;;;;12.65;7.62;;;10.90;99.90;;;;;;1848306;76;21603;-66
2021/03/18 11:29:36;;;;;;;11.53;6.30;;;10.80;99.90;;;;;;1857311;76;21083;-65
2021/03/18 11:32:07;;;;;;;12.05;7.20;;;10.70;99.90;;;;;;1856105;76;21105;-67
2021/03/18 11:34:37;;;;;;;13.85;7.25;;;10.60;99.20;;;;;;1855998;76;21565;-66
2021/03/18 11:37:08;;;;;;;15.13;7.62;;;10.50;99.90;;;;;;1844636;76;21245;-67
2021/03/18 11:39:36;;;;;;;12.37;7.42;;;10.40;99.80;;;;;;1849599;76;21324;-66
2021/03/18 11:42:04;;;;;;;17.45;8.85;;;10.30;99.90;;;;;;1847325;76;21138;-67
2021/03/18 11:44:33;;;;;;;18.77;9.18;;;10.20;99.90;;;;;;1844283;76;21110;-65
2021/03/18 11:47:02;;;;;;;12.47;7.87;;;10.10;99.90;;;;;;1850025;76;21108;-66
2021/03/18 11:49:30;;;;;;;12.28;6.97;;;10.00;99.90;;;;;;1840664;76;21590;-67
2021/03/18 11:51:57;;;;;;;11.30;6.05;;;10.00;99.90;;;;;;1919067;74;21086;-67
2021/03/18 11:54:25;;;;;;;7.85;5.45;;;10.00;99.90;;;;;;1913834;73;21078;-67
2021/03/18 11:56:52;;;;;;;9.50;5.37;;;10.00;99.90;;;;;;1850007;76;21276;-66
2021/03/18 11:59:20;;;;;;;8.28;5.10;;;10.00;99.90;;;;;;1853639;76;21186;-66
2021/03/18 12:01:48;;;;;;;10.10;4.95;;;10.00;99.90;;;;;;1921985;73;21701;-65
2021/03/18 12:04:15;;;;;;;10.43;5.35;;;9.90;99.90;;;;;;1920904;73;21140;-67
2021/03/18 12:06:43;;;;;;;13.03;6.62;;;9.90;99.90;;;;;;1921188;73;21280;-66
2021/03/18 12:09:10;;;;;;;11.40;6.08;;;9.80;99.90;;;;;;1920812;73;21137;-65
2021/03/18 12:11:38;;;;;;;10.88;5.65;;;9.80;99.90;;;;;;1887429;75;21575;-65
2021/03/18 12:14:06;;;;;;;9.83;5.12;;;9.80;99.90;;;;;;1921549;73;21084;-66
2021/03/18 12:16:33;;;;;;;8.68;5.20;;;9.80;99.90;;;;;;1855811;74;21187;-66
2021/03/18 12:19:01;;;;;;;12.25;6.45;;;9.80;99.90;;;;;;1922222;73;22231;-65
2021/03/18 12:21:28;;;;;;;10.55;5.83;;;9.80;99.90;;;;;;1921637;73;21252;-66
2021/03/18 12:23:56;;;;;;;8.85;4.90;;;9.80;99.90;;;;;;1918327;73;21127;-66
2021/03/18 12:26:23;;;;;;;11.20;5.10;;;9.80;99.90;;;;;;1920335;73;21170;-65
2021/03/18 12:28:50;;;;;;;10.15;5.28;;;9.80;99.90;;;;;;1920628;73;21150;-65
2021/03/18 12:31:18;;;;;;;11.97;5.62;;;9.80;99.90;;;;;;1920284;73;21018;-66
2021/03/18 12:33:45;;;;;;;11.48;6.15;;;9.80;99.90;;;;;;1852878;76;22471;-67
2021/03/18 12:36:13;;;;;;;13.95;6.53;;;9.80;99.90;;;;;;1853273;76;21242;-67
2021/03/18 12:38:40;;;;;;;11.75;5.80;;;9.80;99.90;;;;;;1851557;76;21203;-68
2021/03/18 12:41:08;;;;;;;11.33;6.17;;;9.80;99.90;;;;;;1844156;76;21481;-68
2021/03/18 12:43:35;;;;;;;14.28;5.50;;;9.80;99.90;;;;;;1922034;73;22192;-67
2021/03/18 12:46:03;;;;;;;9.20;5.45;;;9.90;99.90;;;;;;1855606;76;22174;-68
2021/03/18 12:48:31;;;;;;;11.08;5.03;;;9.90;99.90;;;;;;1850189;76;21090;-67
2021/03/18 12:50:58;;;;;;;8.73;5.37;;;9.90;99.90;;;;;;1888509;74;21092;-68
2021/03/18 12:53:27;;;;;;;10.18;5.00;;;9.80;99.90;;;;;;1855243;76;21147;-66
2021/03/18 12:55:55;;;;;;;11.30;5.17;;;9.90;99.90;;;;;;1887904;74;21243;-67
2021/03/18 12:58:23;;;;;;;8.65;5.42;;;9.90;99.90;;;;;;1855380;76;21133;-68